createdAt,value
2017-03-10T00:00:01.798Z,77.8
2017-03-10T00:00:42.297Z,77.7
2017-03-10T00:01:22.804Z,77.99
2017-03-10T00:02:03.263Z,77.89
2017-03-10T00:02:43.777Z,77.13
2017-03-10T00:03:24.347Z,76.84
2017-03-10T00:04:04.847Z,77.67
2017-03-10T00:04:45.309Z,76.71
2017-03-10T00:05:25.820Z,77.03
2017-03-10T00:06:06.365Z,76.94
2017-03-10T00:06:46.824Z,76.65
2017-03-10T00:07:27.352Z,76.27
2017-03-10T00:08:07.836Z,76.84
2017-03-10T00:08:48.344Z,76.94
2017-03-10T00:09:28.970Z,77.03
2017-03-10T00:10:09.346Z,76.65
2017-03-10T00:10:49.866Z,76.65
2017-03-10T00:11:30.350Z,76.08
2017-03-10T00:12:10.825Z,75.95
2017-03-10T00:12:51.379Z,76.56
2017-03-10T00:13:31.924Z,76.14
2017-03-10T00:14:13.631Z,76.23
2017-03-10T00:14:54.117Z,75.76
2017-03-10T00:15:34.684Z,75.95
2017-03-10T00:16:15.215Z,75.95
2017-03-10T00:16:55.700Z,76.04
2017-03-10T00:17:36.205Z,75.66
2017-03-10T00:18:18.395Z,76.52
2017-03-10T00:18:57.274Z,76.52
2017-03-10T00:19:41.651Z,76.71
2017-03-10T00:20:21.529Z,77.19
2017-03-10T00:21:02.059Z,76.81
2017-03-10T00:21:42.510Z,76.81
2017-03-10T00:22:23.014Z,76.62
2017-03-10T00:23:03.473Z,76.52
2017-03-10T00:23:44.529Z,75.76
2017-03-10T00:24:25.037Z,75.85
2017-03-10T00:25:05.545Z,76.42
2017-03-10T00:25:46.027Z,76.52
2017-03-10T00:26:26.486Z,75.76
2017-03-10T00:27:06.996Z,76.23
2017-03-10T00:27:47.464Z,76.52
2017-03-10T00:28:27.982Z,76.23
2017-03-10T00:29:08.469Z,77
2017-03-10T00:29:49.635Z,77
2017-03-10T00:30:30.284Z,76.71
2017-03-10T00:31:10.813Z,76.62
2017-03-10T00:31:51.290Z,76.62
2017-03-10T00:32:31.933Z,77.09
2017-03-10T00:33:12.583Z,76.71
2017-03-10T00:33:53.073Z,76.52
2017-03-10T00:34:33.564Z,76.04
2017-03-10T00:35:14.086Z,76.9
2017-03-10T00:35:54.585Z,77.09
2017-03-10T00:36:35.806Z,77.38
2017-03-10T00:37:17.283Z,77.57
2017-03-10T00:37:58.215Z,77.28
2017-03-10T00:38:39.049Z,77.09
2017-03-10T00:39:19.526Z,76.71
2017-03-10T00:40:00.109Z,77.09
2017-03-10T00:40:40.521Z,76.71
2017-03-10T00:41:21.044Z,77
2017-03-10T00:42:01.506Z,77
2017-03-10T00:42:42.008Z,76.14
2017-03-10T00:43:22.494Z,75.76
2017-03-10T00:44:03.089Z,75.95
2017-03-10T00:44:44.697Z,76.14
2017-03-10T00:45:25.482Z,76.23
2017-03-10T00:46:05.909Z,76.81
2017-03-10T00:46:46.391Z,77.67
2017-03-10T00:47:27.138Z,77
2017-03-10T00:48:07.681Z,75.85
2017-03-10T00:48:48.167Z,75.95
2017-03-10T00:49:29.767Z,75.76
2017-03-10T00:50:10.954Z,76.52
2017-03-10T00:50:51.521Z,76.9
2017-03-10T00:51:32.057Z,76.71
2017-03-10T00:52:12.541Z,76.42
2017-03-10T00:52:53.054Z,76.23
2017-03-10T00:53:33.556Z,75.76
2017-03-10T00:54:14.551Z,75.95
2017-03-10T00:54:55.969Z,76.14
2017-03-10T00:55:36.828Z,76.52
2017-03-10T00:56:17.339Z,76.9
2017-03-10T00:56:57.816Z,77
2017-03-10T00:57:38.323Z,76.81
2017-03-10T00:58:20.383Z,77.86
2017-03-10T00:59:00.884Z,77.72
2017-03-10T00:59:41.338Z,76.86
2017-03-10T01:00:21.831Z,76.9
2017-03-10T01:01:02.347Z,77.28
2017-03-10T01:01:43.846Z,76.67
2017-03-10T01:02:24.381Z,77.09
2017-03-10T01:03:08.769Z,76.9
2017-03-10T01:06:15.206Z,76.81
2017-03-10T01:06:55.701Z,76.9
2017-03-10T01:07:39.116Z,77.19
2017-03-10T01:08:19.611Z,77.38
2017-03-10T01:09:01.116Z,77.19
2017-03-10T01:09:42.654Z,77.44
2017-03-10T01:10:26.373Z,77.47
2017-03-10T01:11:06.808Z,77.47
2017-03-10T01:11:49.484Z,77.44
2017-03-10T01:12:30.023Z,78.05
2017-03-10T01:13:10.492Z,77.67
2017-03-10T01:13:50.972Z,77.67
2017-03-10T01:14:32.209Z,76.67
2017-03-10T01:16:47.780Z,77.19
2017-03-10T01:17:29.345Z,76.1
2017-03-10T01:18:09.855Z,76.2
2017-03-10T01:18:50.364Z,76.2
2017-03-10T01:19:30.830Z,76.39
2017-03-10T01:20:11.526Z,75.53
2017-03-10T01:20:56.017Z,75.15
2017-03-10T01:21:36.633Z,75.53
2017-03-10T01:22:21.931Z,76.1
2017-03-10T01:23:02.429Z,75.62
2017-03-10T01:23:43.443Z,76.1
2017-03-10T01:26:14.390Z,76.77
2017-03-10T01:26:59.861Z,76.57
2017-03-10T01:27:42.039Z,76.77
2017-03-10T01:28:22.553Z,76.77
2017-03-10T01:29:03.332Z,76.77
2017-03-10T01:29:43.825Z,76.96
2017-03-10T01:30:24.339Z,76.77
2017-03-10T01:31:05.088Z,76.86
2017-03-10T01:31:45.356Z,76.48
2017-03-10T01:32:30.258Z,76.57
2017-03-10T01:33:10.770Z,76.29
2017-03-10T01:33:51.396Z,77.06
2017-03-10T01:34:33.078Z,77.62
2017-03-10T01:35:13.630Z,77.06
2017-03-10T01:35:54.177Z,77.34
2017-03-10T01:36:36.561Z,76.96
2017-03-10T01:37:18.855Z,77.53
2017-03-10T01:37:59.787Z,78.01
2017-03-10T01:38:40.321Z,77.91
2017-03-10T01:39:20.827Z,78.2
2017-03-10T01:40:01.332Z,78.2
2017-03-10T01:40:41.852Z,78.01
2017-03-10T01:41:25.537Z,78.25
2017-03-10T01:42:07.427Z,77.4
2017-03-10T01:42:47.861Z,77.44
2017-03-10T01:43:29.955Z,78.1
2017-03-10T01:44:10.533Z,77.72
2017-03-10T01:44:51.009Z,78.2
2017-03-10T01:45:31.561Z,78.3
2017-03-10T01:46:12.132Z,78.16
2017-03-10T01:46:52.684Z,78.16
2017-03-10T01:47:33.189Z,78.06
2017-03-10T01:48:13.721Z,78.06
2017-03-10T01:48:55.404Z,78.35
2017-03-10T01:49:38.782Z,78.3
2017-03-10T01:50:21.148Z,78.49
2017-03-10T01:51:05.467Z,79.06
2017-03-10T01:51:48.196Z,78.96
2017-03-10T01:52:28.727Z,79.3
2017-03-10T01:53:10.907Z,79.4
2017-03-10T01:53:51.404Z,79.59
2017-03-10T01:54:33.380Z,78.92
2017-03-10T01:55:13.934Z,79.11
2017-03-10T01:55:56.020Z,78.92
2017-03-10T01:56:36.516Z,79.4
2017-03-10T01:57:17.044Z,79.4
2017-03-10T01:57:57.608Z,79.49
2017-03-10T01:58:38.049Z,79.78
2017-03-10T01:59:18.614Z,79.4
2017-03-10T01:59:59.111Z,79.21
2017-03-10T02:00:39.636Z,79.59
2017-03-10T02:01:20.155Z,79.4
2017-03-10T02:02:00.668Z,78.92
2017-03-10T02:02:41.357Z,79.3
2017-03-10T02:03:21.780Z,78.83
2017-03-10T02:04:02.323Z,78.92
2017-03-10T02:04:42.833Z,79.11
2017-03-10T02:05:23.313Z,78.92
2017-03-10T02:06:03.966Z,79.3
2017-03-10T02:06:44.455Z,79.02
2017-03-10T02:07:25.100Z,79.11
2017-03-10T02:08:07.298Z,79.02
2017-03-10T02:08:47.845Z,79.21
2017-03-10T02:09:28.369Z,78.92
2017-03-10T02:10:08.941Z,78.83
2017-03-10T02:10:49.524Z,79.11
2017-03-10T02:11:30.043Z,79.3
2017-03-10T02:12:10.602Z,79.3
2017-03-10T02:12:51.180Z,79.02
2017-03-10T02:13:31.732Z,79.11
2017-03-10T02:14:12.251Z,78.92
2017-03-10T02:14:54.599Z,78.64
2017-03-10T02:15:35.096Z,78.73
2017-03-10T02:16:15.630Z,79.11
2017-03-10T02:16:56.250Z,78.92
2017-03-10T02:17:36.777Z,78.92
2017-03-10T02:18:17.315Z,79.21
2017-03-10T02:18:57.796Z,78.54
2017-03-10T02:19:38.304Z,78.92
2017-03-10T02:20:18.786Z,79.3
2017-03-10T02:20:59.309Z,79.21
2017-03-10T02:21:40.502Z,79.21
2017-03-10T02:22:21.214Z,79.4
2017-03-10T02:23:03.581Z,79.88
2017-03-10T02:23:45.649Z,79.02
2017-03-10T02:24:27.069Z,78.92
2017-03-10T02:25:07.575Z,79.11
2017-03-10T02:25:48.089Z,79.02
2017-03-10T02:26:29.612Z,79.02
2017-03-10T02:27:11.766Z,79.3
2017-03-10T02:27:52.356Z,78.92
2017-03-10T02:28:32.860Z,79.02
2017-03-10T02:29:13.361Z,78.83
2017-03-10T02:29:53.899Z,78.83
2017-03-10T02:30:34.393Z,78.92
2017-03-10T02:31:14.908Z,78.73
2017-03-10T02:31:55.470Z,78.92
2017-03-10T02:32:35.998Z,78.92
2017-03-10T02:33:16.604Z,78.83
2017-03-10T02:33:57.079Z,78.83
2017-03-10T02:34:37.591Z,78.92
2017-03-10T02:35:18.147Z,78.83
2017-03-10T02:35:58.627Z,78.64
2017-03-10T02:36:39.158Z,78.35
2017-03-10T02:37:19.745Z,78.83
2017-03-10T02:38:00.235Z,79.21
2017-03-10T02:38:40.768Z,78.83
2017-03-10T02:39:24.028Z,78.64
2017-03-10T02:40:04.579Z,78.35
2017-03-10T02:40:45.180Z,78.25
2017-03-10T02:41:25.654Z,78.25
2017-03-10T02:42:06.136Z,78.73
2017-03-10T02:42:46.672Z,78.44
2017-03-10T02:43:27.145Z,78.35
2017-03-10T02:44:07.648Z,78.35
2017-03-10T02:44:48.739Z,78.92
2017-03-10T02:45:29.269Z,79.11
2017-03-10T02:46:10.092Z,79.21
2017-03-10T02:46:50.619Z,79.07
2017-03-10T02:47:31.273Z,79.64
2017-03-10T02:48:11.758Z,79.68
2017-03-10T02:48:52.317Z,79.46
2017-03-10T02:49:34.964Z,79.27
2017-03-10T02:50:15.457Z,79.36
2017-03-10T02:50:55.976Z,79.46
2017-03-10T02:51:36.498Z,79.27
2017-03-10T02:52:17.011Z,79.4
2017-03-10T02:52:59.305Z,79.17
2017-03-10T02:53:39.806Z,79.4
2017-03-10T02:54:20.330Z,79.21
2017-03-10T02:55:01.672Z,79.36
2017-03-10T02:55:42.284Z,79.27
2017-03-10T02:56:23.413Z,79.55
2017-03-10T02:57:03.968Z,79.21
2017-03-10T02:57:44.463Z,79.4
2017-03-10T02:58:25.005Z,79.17
2017-03-10T02:59:05.454Z,79.27
2017-03-10T02:59:46.018Z,79.83
2017-03-10T03:00:26.568Z,79.97
2017-03-10T03:01:07.308Z,79.78
2017-03-10T03:01:49.419Z,79.49
2017-03-10T03:02:29.934Z,79.59
2017-03-10T03:03:10.435Z,79.21
2017-03-10T03:03:50.955Z,79.49
2017-03-10T03:04:33.008Z,78.88
2017-03-10T03:05:13.624Z,79.74
2017-03-10T03:05:54.024Z,80.31
2017-03-10T03:06:36.191Z,80.22
2017-03-10T03:07:18.492Z,80.31
2017-03-10T03:07:59.013Z,79.55
2017-03-10T03:08:39.624Z,79.17
2017-03-10T03:09:20.122Z,78.78
2017-03-10T03:10:00.627Z,78.31
2017-03-10T03:10:41.675Z,77.87
2017-03-10T03:11:22.479Z,78.06
2017-03-10T03:12:03.045Z,77.59
2017-03-10T03:12:43.592Z,76.92
2017-03-10T03:13:24.472Z,76.73
2017-03-10T03:14:06.406Z,76.44
2017-03-10T03:14:46.899Z,76.25
2017-03-10T03:15:27.405Z,76.82
2017-03-10T03:16:09.419Z,77.11
2017-03-10T03:16:51.720Z,76.73
2017-03-10T03:17:32.214Z,76.73
2017-03-10T03:18:12.710Z,76.73
2017-03-10T03:18:53.208Z,76.92
2017-03-10T03:19:33.717Z,76.73
2017-03-10T03:20:14.238Z,76.73
2017-03-10T03:20:54.823Z,76.44
2017-03-10T03:21:35.433Z,75.49
2017-03-10T03:22:16.577Z,75.96
2017-03-10T03:22:59.289Z,75.49
2017-03-10T03:23:39.790Z,75.01
2017-03-10T03:24:20.333Z,75.11
2017-03-10T03:25:02.696Z,74.44
2017-03-10T03:25:43.253Z,74.35
2017-03-10T03:26:23.784Z,74.06
2017-03-10T03:27:06.350Z,74.02
2017-03-10T03:27:46.923Z,73.36
2017-03-10T03:28:27.485Z,72.6
2017-03-10T03:29:09.610Z,73.01
2017-03-10T03:29:50.094Z,73.01
2017-03-10T03:30:30.586Z,72.92
2017-03-10T03:31:11.076Z,72.5
2017-03-10T03:31:51.589Z,72.63
2017-03-10T03:32:32.076Z,72.82
2017-03-10T03:33:12.563Z,71.96
2017-03-10T03:33:53.066Z,71.01
2017-03-10T03:34:33.573Z,70.82
2017-03-10T03:35:15.603Z,71.58
2017-03-10T03:35:56.107Z,70.92
2017-03-10T03:36:36.621Z,70.92
2017-03-10T03:37:17.110Z,71.07
2017-03-10T03:37:57.612Z,71.26
2017-03-10T03:38:38.113Z,70.69
2017-03-10T03:39:18.634Z,70.21
2017-03-10T03:39:59.110Z,71.17
2017-03-10T03:40:39.664Z,71.73
2017-03-10T03:41:20.147Z,71.17
2017-03-10T03:42:02.492Z,70.69
2017-03-10T03:42:43.009Z,70.31
2017-03-10T03:43:23.522Z,70.31
2017-03-10T03:44:03.994Z,68.78
2017-03-10T03:44:44.492Z,68.98
2017-03-10T03:45:24.995Z,68.88
2017-03-10T03:46:05.518Z,68.94
2017-03-10T03:46:46.022Z,69.32
2017-03-10T03:47:26.523Z,69.17
2017-03-10T03:48:07.011Z,69.45
2017-03-10T03:48:47.515Z,69.54
2017-03-10T03:49:29.620Z,68.88
2017-03-10T03:50:10.110Z,69.26
2017-03-10T03:50:53.220Z,70.02
2017-03-10T03:51:37.323Z,68.88
2017-03-10T03:52:17.790Z,68.88
2017-03-10T03:52:58.300Z,68.98
2017-03-10T03:53:38.799Z,69.17
2017-03-10T03:54:19.289Z,68.69
2017-03-10T03:54:59.822Z,68.88
2017-03-10T03:55:40.327Z,68.65
2017-03-10T03:56:20.966Z,68.18
2017-03-10T03:57:01.380Z,68.27
2017-03-10T03:57:44.450Z,67.83
2017-03-10T03:58:24.977Z,67.8
2017-03-10T03:59:05.479Z,67.89
2017-03-10T03:59:46.005Z,67.7
2017-03-10T04:00:28.333Z,68.08
2017-03-10T04:01:08.858Z,68.94
2017-03-10T04:01:50.829Z,69.6
2017-03-10T04:02:33.204Z,68.84
2017-03-10T04:03:13.715Z,68.75
2017-03-10T04:03:54.253Z,69.04
2017-03-10T04:04:36.421Z,68.18
2017-03-10T04:05:16.966Z,68.46
2017-03-10T04:05:57.422Z,68.71
2017-03-10T04:06:37.943Z,69.42
2017-03-10T04:07:20.341Z,68.84
2017-03-10T04:08:00.840Z,69.23
2017-03-10T04:08:41.322Z,69.42
2017-03-10T04:09:21.900Z,69.32
2017-03-10T04:10:02.528Z,68.98
2017-03-10T04:10:42.927Z,68.75
2017-03-10T04:11:23.453Z,68.46
2017-03-10T04:12:03.983Z,67.99
2017-03-10T04:12:44.503Z,67.7
2017-03-10T04:13:25.066Z,68.18
2017-03-10T04:14:07.339Z,67.8
2017-03-10T04:14:47.845Z,67.51
2017-03-10T04:15:28.466Z,67.7
2017-03-10T04:16:08.981Z,67.89
2017-03-10T04:16:51.128Z,68.18
2017-03-10T04:17:31.646Z,68.94
2017-03-10T04:18:12.158Z,69.13
2017-03-10T04:18:52.654Z,69.13
2017-03-10T04:19:33.183Z,67.89
2017-03-10T04:20:13.695Z,67.61
2017-03-10T04:20:54.218Z,68.46
2017-03-10T04:21:34.734Z,68.84
2017-03-10T04:22:15.392Z,69
2017-03-10T04:22:55.887Z,68.94
2017-03-10T04:23:36.445Z,68.94
2017-03-10T04:24:17.022Z,68.84
2017-03-10T04:24:57.549Z,68.84
2017-03-10T04:25:41.142Z,68.84
2017-03-10T04:26:21.645Z,68.84
2017-03-10T04:27:02.170Z,68.18
2017-03-10T04:27:42.714Z,67.51
2017-03-10T04:28:23.203Z,68.18
2017-03-10T04:29:03.730Z,67.8
2017-03-10T04:29:44.281Z,67.99
2017-03-10T04:30:26.324Z,68.46
2017-03-10T04:31:06.885Z,67.99
2017-03-10T04:31:47.608Z,67.8
2017-03-10T04:32:28.104Z,68.46
2017-03-10T04:33:08.587Z,68.27
2017-03-10T04:33:50.754Z,68.27
2017-03-10T04:34:31.217Z,68.94
2017-03-10T04:35:11.734Z,68.75
2017-03-10T04:35:52.288Z,67.99
2017-03-10T04:36:32.854Z,67.8
2017-03-10T04:37:14.283Z,68.18
2017-03-10T04:37:54.750Z,68.94
2017-03-10T04:38:35.338Z,67.8
2017-03-10T04:39:15.858Z,67.89
2017-03-10T04:39:56.346Z,67.89
2017-03-10T04:40:38.498Z,68.43
2017-03-10T04:41:19.009Z,68.46
2017-03-10T04:41:59.598Z,67.95
2017-03-10T04:42:40.126Z,68.33
2017-03-10T04:43:20.626Z,68.33
2017-03-10T04:44:01.145Z,68.15
2017-03-10T04:44:41.629Z,68.15
2017-03-10T04:45:22.526Z,68.52
2017-03-10T04:46:04.512Z,68.24
2017-03-10T04:46:45.037Z,68.62
2017-03-10T04:47:25.543Z,68.24
2017-03-10T04:48:06.235Z,67.57
2017-03-10T04:48:46.747Z,67.47
2017-03-10T04:49:27.315Z,67.38
2017-03-10T04:50:07.796Z,67.76
2017-03-10T04:50:48.290Z,68.62
2017-03-10T04:51:28.860Z,67.89
2017-03-10T04:52:09.358Z,67.95
2017-03-10T04:52:49.904Z,67.86
2017-03-10T04:53:30.366Z,67.67
2017-03-10T04:54:11.019Z,67.67
2017-03-10T04:54:51.550Z,67.67
2017-03-10T04:55:32.039Z,67.57
2017-03-10T04:56:12.639Z,67.67
2017-03-10T04:56:53.166Z,67.47
2017-03-10T04:57:33.672Z,67.76
2017-03-10T04:58:14.171Z,67.76
2017-03-10T04:59:07.052Z,68.15
2017-03-10T04:59:41.578Z,68.43
2017-03-10T05:00:22.095Z,68.15
2017-03-10T05:01:02.658Z,68.18
2017-03-10T05:01:43.201Z,67.89
2017-03-10T05:02:23.696Z,67.7
2017-03-10T05:03:04.282Z,67.89
2017-03-10T05:03:44.913Z,67.8
2017-03-10T05:04:27.430Z,67.8
2017-03-10T05:05:09.717Z,67.19
2017-03-10T05:05:50.222Z,67.29
2017-03-10T05:06:30.721Z,67.76
2017-03-10T05:07:11.212Z,67.86
2017-03-10T05:07:51.774Z,67.47
2017-03-10T05:08:32.629Z,67.95
2017-03-10T05:09:12.918Z,67.47
2017-03-10T05:09:53.675Z,67.67
2017-03-10T05:10:34.180Z,68.05
2017-03-10T05:11:14.732Z,68.37
2017-03-10T05:11:55.238Z,68.9
2017-03-10T05:12:35.773Z,68.81
2017-03-10T05:13:18.015Z,68.84
2017-03-10T05:13:58.626Z,69.04
2017-03-10T05:14:39.062Z,68.56
2017-03-10T05:15:19.675Z,68.75
2017-03-10T05:16:02.348Z,68.94
2017-03-10T05:16:42.877Z,68.84
2017-03-10T05:17:23.411Z,68.94
2017-03-10T05:18:03.950Z,68.75
2017-03-10T05:18:44.473Z,68.84
2017-03-10T05:19:25.000Z,68.75
2017-03-10T05:20:05.608Z,68.65
2017-03-10T05:20:48.042Z,69.04
2017-03-10T05:21:28.524Z,69.23
2017-03-10T05:22:11.957Z,68.18
2017-03-10T05:22:52.438Z,67.7
2017-03-10T05:23:32.980Z,67.99
2017-03-10T05:24:13.496Z,67.1
2017-03-10T05:24:54.093Z,66.94
2017-03-10T05:25:34.490Z,67.32
2017-03-10T05:26:15.034Z,67.61
2017-03-10T05:26:58.561Z,67.22
2017-03-10T05:27:40.942Z,67.41
2017-03-10T05:28:21.477Z,67.51
2017-03-10T05:29:01.976Z,67.22
2017-03-10T05:29:42.478Z,67.41
2017-03-10T05:30:22.982Z,67.22
2017-03-10T05:31:03.467Z,67.51
2017-03-10T05:31:43.997Z,67.51
2017-03-10T05:32:24.457Z,67.32
2017-03-10T05:33:04.994Z,67.7
2017-03-10T05:33:47.172Z,67.99
2017-03-10T05:34:27.695Z,67.61
2017-03-10T05:35:12.083Z,68.18
2017-03-10T05:35:54.427Z,67.7
2017-03-10T05:36:34.930Z,67.8
2017-03-10T05:37:15.478Z,68.18
2017-03-10T05:37:56.008Z,68.75
2017-03-10T05:38:36.501Z,68.62
2017-03-10T05:39:17.026Z,68.81
2017-03-10T05:39:57.514Z,68.81
2017-03-10T05:40:38.042Z,68.62
2017-03-10T05:41:18.579Z,68.81
2017-03-10T05:41:59.074Z,69
2017-03-10T05:42:39.589Z,69.1
2017-03-10T05:43:20.098Z,69.13
2017-03-10T05:44:00.600Z,68.9
2017-03-10T05:44:41.103Z,69.51
2017-03-10T05:45:23.557Z,69.29
2017-03-10T05:46:04.068Z,69.38
2017-03-10T05:46:44.551Z,69.57
2017-03-10T05:47:25.063Z,69.38
2017-03-10T05:48:05.572Z,69.57
2017-03-10T05:48:46.093Z,69.95
2017-03-10T05:49:26.583Z,69.85
2017-03-10T05:50:07.089Z,69.95
2017-03-10T05:50:47.623Z,69.67
2017-03-10T05:51:28.138Z,69.85
2017-03-10T05:52:08.644Z,69.29
2017-03-10T05:52:49.149Z,69.48
2017-03-10T05:53:29.681Z,69.48
2017-03-10T05:54:10.165Z,69.95
2017-03-10T05:54:50.677Z,69.38
2017-03-10T05:55:31.195Z,68.62
2017-03-10T05:56:11.731Z,68.62
2017-03-10T05:56:54.126Z,69
2017-03-10T05:57:34.653Z,68.9
2017-03-10T05:58:15.153Z,69.1
2017-03-10T05:58:55.681Z,69.29
2017-03-10T05:59:36.204Z,69.38
2017-03-10T06:00:16.723Z,70.24
2017-03-10T06:00:57.175Z,69.67
2017-03-10T06:01:37.723Z,70.24
2017-03-10T06:02:18.199Z,70.24
2017-03-10T06:02:58.744Z,70.33
2017-03-10T06:03:39.241Z,70.33
2017-03-10T06:04:19.766Z,69.85
2017-03-10T06:05:00.305Z,70.14
2017-03-10T06:05:40.816Z,70.9
2017-03-10T06:06:21.357Z,71
2017-03-10T06:07:01.845Z,70.62
2017-03-10T06:07:42.374Z,71.28
2017-03-10T06:08:22.873Z,70.72
2017-03-10T06:09:03.392Z,71.28
2017-03-10T06:09:43.879Z,71.76
2017-03-10T06:10:24.411Z,71
2017-03-10T06:11:04.922Z,71.38
2017-03-10T06:11:45.512Z,71.09
2017-03-10T06:12:26.009Z,71.47
2017-03-10T06:13:09.293Z,71
2017-03-10T06:13:49.783Z,72.05
2017-03-10T06:14:30.290Z,71.76
2017-03-10T06:15:10.833Z,72.42
2017-03-10T06:15:51.357Z,72.62
2017-03-10T06:16:31.931Z,72.24
2017-03-10T06:17:14.729Z,71.86
2017-03-10T06:17:55.149Z,71.76
2017-03-10T06:18:35.964Z,72.81
2017-03-10T06:19:16.693Z,73.38
2017-03-10T06:19:57.213Z,72.77
2017-03-10T06:20:37.713Z,73.47
2017-03-10T06:21:18.620Z,73.19
2017-03-10T06:21:58.964Z,73.85
2017-03-10T06:22:40.427Z,74.14
2017-03-10T06:23:20.922Z,73.28
2017-03-10T06:24:01.419Z,73.28
2017-03-10T06:24:41.920Z,73.95
2017-03-10T06:25:22.432Z,74.71
2017-03-10T06:26:02.944Z,75.57
2017-03-10T06:26:43.442Z,75.47
2017-03-10T06:27:23.947Z,75.76
2017-03-10T06:28:04.440Z,75.38
2017-03-10T06:28:44.965Z,73.66
2017-03-10T06:29:25.466Z,74.8
2017-03-10T06:30:05.932Z,75.67
2017-03-10T06:30:46.479Z,75.95
2017-03-10T06:31:27.002Z,74.8
2017-03-10T06:32:07.527Z,74.52
2017-03-10T06:32:48.057Z,75.67
2017-03-10T06:33:28.540Z,76.23
2017-03-10T06:34:09.056Z,75.09
2017-03-10T06:34:49.615Z,76.23
2017-03-10T06:35:30.151Z,81.85
2017-03-10T06:36:13.859Z,86.51
2017-03-10T06:36:54.375Z,89.37
2017-03-10T06:37:34.880Z,91.41
2017-03-10T06:38:17.350Z,92.55
2017-03-10T06:38:57.977Z,92.36
2017-03-10T06:39:38.492Z,91.31
2017-03-10T06:40:19.004Z,90.94
2017-03-10T06:40:59.499Z,89.32
2017-03-10T06:41:39.993Z,88.56
2017-03-10T06:42:20.484Z,86.36
2017-03-10T06:43:01.000Z,83.32
2017-03-10T06:43:41.491Z,80.55
2017-03-10T06:44:22.037Z,79.03
2017-03-10T06:45:02.498Z,77.42
2017-03-10T06:45:43.006Z,76.65
2017-03-10T06:46:23.534Z,74.37
2017-03-10T06:47:04.087Z,73.13
2017-03-10T06:47:44.635Z,69.89
2017-03-10T06:48:25.135Z,67.8
2017-03-10T06:49:08.664Z,66.14
2017-03-10T06:49:49.214Z,65.32
2017-03-10T06:50:29.715Z,65.8
2017-03-10T06:51:12.185Z,66.56
2017-03-10T06:51:52.706Z,67.03
2017-03-10T06:52:33.284Z,66.08
2017-03-10T06:53:13.763Z,67.13
2017-03-10T06:53:54.293Z,64.65
2017-03-10T06:54:34.786Z,63.7
2017-03-10T06:55:15.318Z,63.7
2017-03-10T06:55:58.123Z,64.15
2017-03-10T06:56:40.235Z,63.86
2017-03-10T06:57:20.757Z,63.6
2017-03-10T06:58:01.362Z,63.8
2017-03-10T06:58:41.958Z,63.04
2017-03-10T06:59:22.897Z,62.85
2017-03-10T07:00:03.516Z,63.23
2017-03-10T07:02:17.723Z,62.12
2017-03-10T07:03:01.897Z,61.99
2017-03-10T07:03:42.374Z,61.64
2017-03-10T07:04:22.873Z,61.25
2017-03-10T07:05:03.345Z,61.07
2017-03-10T07:05:43.894Z,61.35
2017-03-10T07:06:24.417Z,61.93
2017-03-10T07:07:04.909Z,62.21
2017-03-10T07:07:46.863Z,61.16
2017-03-10T07:08:27.791Z,61.35
2017-03-10T07:09:08.929Z,60.81
2017-03-10T07:09:49.969Z,60.81
2017-03-10T07:10:30.497Z,61
2017-03-10T07:12:45.112Z,76.96
2017-03-10T07:13:25.977Z,71.87
2017-03-10T07:14:08.239Z,67.77
2017-03-10T07:16:31.944Z,88.69
2017-03-10T07:17:19.208Z,85.06
2017-03-10T07:18:01.827Z,88.73
2017-03-10T07:18:42.310Z,89.4
2017-03-10T07:19:23.855Z,90.36
2017-03-10T07:20:04.505Z,86.82
2017-03-10T07:20:47.513Z,86.06
2017-03-10T07:21:28.599Z,86.92
2017-03-10T07:22:10.425Z,92.21
2017-03-10T07:22:52.472Z,91.36
2017-03-10T07:23:33.767Z,84.29
2017-03-10T07:24:14.260Z,73.75
2017-03-10T07:24:58.995Z,67.93
2017-03-10T07:25:41.396Z,61.92
2017-03-10T07:26:22.766Z,60.3
2017-03-10T07:28:29.149Z,89.73
2017-03-10T07:29:17.572Z,82.43
2017-03-10T07:30:02.024Z,74.9
2017-03-10T07:30:42.543Z,68.76
2017-03-10T07:31:23.179Z,66.09
2017-03-10T07:32:03.662Z,71.08
2017-03-10T07:32:44.254Z,75.76
2017-03-10T07:33:25.676Z,68.32
2017-03-10T07:34:06.115Z,64.75
2017-03-10T07:34:46.671Z,68.28
2017-03-10T07:35:27.140Z,63.23
2017-03-10T07:36:07.750Z,64.85
2017-03-10T07:36:48.244Z,65.61
2017-03-10T07:37:28.728Z,63.8
2017-03-10T07:38:09.325Z,61.6
2017-03-10T07:38:49.774Z,60.65
2017-03-10T07:39:30.285Z,57.89
2017-03-10T07:40:10.761Z,57.22
2017-03-10T07:40:51.293Z,57.98
2017-03-10T07:41:31.759Z,59.7
2017-03-10T07:42:12.305Z,59.79
2017-03-10T07:42:52.730Z,60.55
2017-03-10T07:43:33.227Z,59.82
2017-03-10T07:44:13.696Z,59.6
2017-03-10T07:44:54.168Z,58.84
2017-03-10T07:45:34.664Z,58.26
2017-03-10T07:46:15.183Z,57.31
2017-03-10T07:46:55.709Z,57.41
2017-03-10T07:47:36.152Z,57
2017-03-10T07:48:16.673Z,56.81
2017-03-10T07:48:57.134Z,58.52
2017-03-10T07:49:37.640Z,58.43
2017-03-10T07:50:18.147Z,57.38
2017-03-10T07:50:58.617Z,62.56
2017-03-10T07:51:39.161Z,67.52
2017-03-10T07:52:19.630Z,62.37
2017-03-10T07:53:00.156Z,67.42
2017-03-10T07:53:40.712Z,62.18
2017-03-10T07:54:21.263Z,64.28
2017-03-10T07:55:01.833Z,63.7
2017-03-10T07:55:42.391Z,63.04
2017-03-10T07:56:22.905Z,70.67
2017-03-10T07:57:03.364Z,80.24
2017-03-10T07:57:43.869Z,79.86
2017-03-10T07:58:24.435Z,69.17
2017-03-10T07:59:04.874Z,61.54
2017-03-10T07:59:45.459Z,60.21
2017-03-10T08:00:25.974Z,59.73
2017-03-10T08:01:06.417Z,60.49
2017-03-10T08:01:46.923Z,59.25
2017-03-10T08:02:27.441Z,59.63
2017-03-10T08:03:07.958Z,60.68
2017-03-10T08:03:48.544Z,73.85
2017-03-10T08:04:29.069Z,84.67
2017-03-10T08:05:09.564Z,78.23
2017-03-10T08:05:50.054Z,79.77
2017-03-10T08:06:30.515Z,76.27
2017-03-10T08:07:11.033Z,77.42
2017-03-10T08:07:51.511Z,66.5
2017-03-10T08:08:34.307Z,68.35
2017-03-10T08:09:14.062Z,66.02
2017-03-10T08:09:54.588Z,77.7
2017-03-10T08:10:35.047Z,77.32
2017-03-10T08:11:16.899Z,63.92
2017-03-10T08:11:57.338Z,66.22
2017-03-10T08:12:37.849Z,67.68
2017-03-10T08:13:18.350Z,70.54
2017-03-10T08:13:58.863Z,70.45
2017-03-10T08:14:39.323Z,62.71
2017-03-10T08:15:19.835Z,58.29
2017-03-10T08:16:00.304Z,64.53
2017-03-10T08:16:40.861Z,67.68
2017-03-10T08:17:21.391Z,70.54
2017-03-10T08:18:01.959Z,64.81
2017-03-10T08:18:42.517Z,60.84
2017-03-10T08:19:23.039Z,58.73
2017-03-10T08:20:03.538Z,54.99
2017-03-10T08:20:44.209Z,55.46
2017-03-10T08:21:24.736Z,55.75
2017-03-10T08:22:05.375Z,55.01
2017-03-10T08:22:45.820Z,55.01
2017-03-10T08:23:26.317Z,58.54
2017-03-10T08:24:06.769Z,71.06
2017-03-10T08:24:47.269Z,64.62
2017-03-10T08:25:27.968Z,65.2
2017-03-10T08:26:08.663Z,62.52
2017-03-10T08:26:49.072Z,67.97
2017-03-10T08:27:30.585Z,65.1
2017-03-10T08:28:11.324Z,72.74
2017-03-10T08:28:52.028Z,72.07
2017-03-10T08:29:32.562Z,62.91
2017-03-10T08:30:13.091Z,57.37
2017-03-10T08:30:53.549Z,55.18
2017-03-10T08:31:34.053Z,54.1
2017-03-10T08:32:14.579Z,53.14
2017-03-10T08:32:55.178Z,53.91
2017-03-10T08:33:35.543Z,53.91
2017-03-10T08:34:16.098Z,53.81
2017-03-10T08:34:56.486Z,53.65
2017-03-10T08:35:36.995Z,53.65
2017-03-10T08:36:17.468Z,53.84
2017-03-10T08:36:58.058Z,54.22
2017-03-10T08:37:38.519Z,53.93
2017-03-10T08:38:18.954Z,52.03
2017-03-10T08:38:59.470Z,51.62
2017-03-10T08:39:40.002Z,52.67
2017-03-10T08:40:20.422Z,51.33
2017-03-10T08:41:01.506Z,52.76
2017-03-10T08:41:41.982Z,52.67
2017-03-10T08:42:22.476Z,54.19
2017-03-10T08:43:04.066Z,55.08
2017-03-10T08:43:48.392Z,63.1
2017-03-10T08:44:28.891Z,59.85
2017-03-10T08:45:09.670Z,62.34
2017-03-10T08:45:50.935Z,57.15
2017-03-10T08:46:31.532Z,55.15
2017-03-10T08:47:12.024Z,56.1
2017-03-10T08:47:52.551Z,59.66
2017-03-10T08:48:33.032Z,62.62
2017-03-10T08:49:13.534Z,57.37
2017-03-10T08:49:53.993Z,64.05
2017-03-10T08:50:34.620Z,65.58
2017-03-10T08:51:15.174Z,56.99
2017-03-10T08:51:55.936Z,54.7
2017-03-10T08:52:36.515Z,55.18
2017-03-10T08:53:17.475Z,53.96
2017-03-10T08:53:57.949Z,52.53
2017-03-10T08:54:38.464Z,52.12
2017-03-10T08:55:19.003Z,53.29
2017-03-10T08:56:00.060Z,54.53
2017-03-10T08:56:40.622Z,61.13
2017-03-10T08:57:21.208Z,65.23
2017-03-10T08:58:01.675Z,58.64
2017-03-10T08:58:42.278Z,66.38
2017-03-10T08:59:23.163Z,67.91
2017-03-10T09:00:03.590Z,57.85
2017-03-10T09:00:44.046Z,55.75